sensor_id;sensor_type;location;lat;lon;timestamp;pressure;altitude;pressure_sealevel;temperature;humidity
33496;BME280;19836;55.812;37.560;2023-08-21T00:00:24;99690.94;;;17.95;72.21
33496;BME280;19836;55.812;37.560;2023-08-21T00:02:50;99692.06;;;17.91;72.31
33496;BME280;19836;55.812;37.560;2023-08-21T00:05:16;99695.00;;;17.88;72.42
33496;BME280;19836;55.812;37.560;2023-08-21T00:07:42;99691.22;;;17.91;72.96
33496;BME280;19836;55.812;37.560;2023-08-21T00:10:09;99697.41;;;17.93;73.06
33496;BME280;19836;55.812;37.560;2023-08-21T00:12:36;99696.22;;;17.83;73.02
33496;BME280;19836;55.812;37.560;2023-08-21T00:15:02;99697.06;;;17.69;73.24
33496;BME280;19836;55.812;37.560;2023-08-21T00:17:29;99695.47;;;17.65;73.38
33496;BME280;19836;55.812;37.560;2023-08-21T00:19:55;99698.47;;;17.61;73.42
33496;BME280;19836;55.812;37.560;2023-08-21T00:22:21;99694.19;;;17.57;73.77
33496;BME280;19836;55.812;37.560;2023-08-21T00:24:47;99703.97;;;17.59;73.88
33496;BME280;19836;55.812;37.560;2023-08-21T00:27:13;99697.78;;;17.57;73.71
33496;BME280;19836;55.812;37.560;2023-08-21T00:29:39;99696.03;;;17.56;73.96
33496;BME280;19836;55.812;37.560;2023-08-21T00:32:05;99696.59;;;17.47;74.07
33496;BME280;19836;55.812;37.560;2023-08-21T00:34:32;99693.44;;;17.39;74.06
33496;BME280;19836;55.812;37.560;2023-08-21T00:36:58;99701.91;;;17.33;74.14
33496;BME280;19836;55.812;37.560;2023-08-21T00:39:25;99696.47;;;17.33;74.21
33496;BME280;19836;55.812;37.560;2023-08-21T00:41:51;99693.78;;;17.33;74.21
33496;BME280;19836;55.812;37.560;2023-08-21T00:44:17;99698.31;;;17.33;74.60
33496;BME280;19836;55.812;37.560;2023-08-21T00:46:43;99694.81;;;17.31;74.35
33496;BME280;19836;55.812;37.560;2023-08-21T00:49:10;99701.09;;;17.31;74.36
33496;BME280;19836;55.812;37.560;2023-08-21T00:51:36;99698.31;;;17.33;74.88
33496;BME280;19836;55.812;37.560;2023-08-21T00:54:03;99690.47;;;17.28;74.62
33496;BME280;19836;55.812;37.560;2023-08-21T00:56:29;99701.81;;;17.19;74.94
33496;BME280;19836;55.812;37.560;2023-08-21T00:58:56;99700.06;;;17.18;74.98
33496;BME280;19836;55.812;37.560;2023-08-21T01:01:24;99699.28;;;17.16;75.38
33496;BME280;19836;55.812;37.560;2023-08-21T01:03:53;99700.44;;;17.12;75.59
33496;BME280;19836;55.812;37.560;2023-08-21T01:06:20;99695.19;;;17.09;75.51
33496;BME280;19836;55.812;37.560;2023-08-21T01:16:56;99709.50;;;17.11;76.08
33496;BME280;19836;55.812;37.560;2023-08-21T01:19:41;99708.38;;;17.15;76.05
33496;BME280;19836;55.812;37.560;2023-08-21T01:22:07;99705.94;;;17.11;76.08
33496;BME280;19836;55.812;37.560;2023-08-21T01:24:35;99709.69;;;17.08;75.98
33496;BME280;19836;55.812;37.560;2023-08-21T01:27:01;99710.28;;;16.98;75.81
33496;BME280;19836;55.812;37.560;2023-08-21T01:29:28;99716.94;;;16.92;75.99
33496;BME280;19836;55.812;37.560;2023-08-21T01:35:04;99715.97;;;16.93;76.37
33496;BME280;19836;55.812;37.560;2023-08-21T01:37:31;99706.25;;;16.89;76.64
33496;BME280;19836;55.812;37.560;2023-08-21T01:40:00;99702.94;;;16.84;76.74
33496;BME280;19836;55.812;37.560;2023-08-21T01:42:26;99703.22;;;16.80;76.54
33496;BME280;19836;55.812;37.560;2023-08-21T01:44:52;99710.78;;;16.73;76.70
33496;BME280;19836;55.812;37.560;2023-08-21T01:47:18;99705.63;;;16.69;77.18
33496;BME280;19836;55.812;37.560;2023-08-21T01:49:43;99710.41;;;16.64;77.04
33496;BME280;19836;55.812;37.560;2023-08-21T01:52:10;99715.31;;;16.57;77.44
33496;BME280;19836;55.812;37.560;2023-08-21T01:54:36;99719.22;;;16.52;77.21
33496;BME280;19836;55.812;37.560;2023-08-21T01:57:02;99720.78;;;16.56;77.54
33496;BME280;19836;55.812;37.560;2023-08-21T01:59:29;99722.63;;;16.55;77.92
33496;BME280;19836;55.812;37.560;2023-08-21T02:01:55;99723.72;;;16.51;78.12
33496;BME280;19836;55.812;37.560;2023-08-21T02:04:21;99724.97;;;16.46;77.92
33496;BME280;19836;55.812;37.560;2023-08-21T02:06:46;99734.19;;;16.42;77.85
33496;BME280;19836;55.812;37.560;2023-08-21T02:09:12;99734.50;;;16.36;77.95
33496;BME280;19836;55.812;37.560;2023-08-21T02:11:38;99740.69;;;16.38;78.52
33496;BME280;19836;55.812;37.560;2023-08-21T02:14:04;99731.56;;;16.40;78.42
33496;BME280;19836;55.812;37.560;2023-08-21T02:16:30;99733.41;;;16.40;78.31
33496;BME280;19836;55.812;37.560;2023-08-21T02:18:56;99735.34;;;16.36;78.76
33496;BME280;19836;55.812;37.560;2023-08-21T02:21:23;99732.91;;;16.32;79.00
33496;BME280;19836;55.812;37.560;2023-08-21T02:23:48;99729.31;;;16.31;79.12
33496;BME280;19836;55.812;37.560;2023-08-21T02:26:15;99728.38;;;16.32;79.09
33496;BME280;19836;55.812;37.560;2023-08-21T02:28:42;99729.16;;;16.34;79.28
33496;BME280;19836;55.812;37.560;2023-08-21T02:31:09;99733.94;;;16.29;79.17
33496;BME280;19836;55.812;37.560;2023-08-21T02:33:37;99732.53;;;16.22;79.47
33496;BME280;19836;55.812;37.560;2023-08-21T02:36:03;99731.00;;;16.17;79.46
33496;BME280;19836;55.812;37.560;2023-08-21T02:38:29;99728.22;;;16.18;79.98
33496;BME280;19836;55.812;37.560;2023-08-21T02:40:56;99725.53;;;16.18;79.93
33496;BME280;19836;55.812;37.560;2023-08-21T02:43:22;99727.25;;;16.19;79.97
33496;BME280;19836;55.812;37.560;2023-08-21T02:45:48;99721.84;;;16.19;79.80
33496;BME280;19836;55.812;37.560;2023-08-21T02:48:14;99720.91;;;16.20;80.06
33496;BME280;19836;55.812;37.560;2023-08-21T02:50:40;99728.69;;;16.26;79.81
33496;BME280;19836;55.812;37.560;2023-08-21T02:53:07;99730.59;;;16.24;80.03
33496;BME280;19836;55.812;37.560;2023-08-21T02:55:33;99735.03;;;16.25;79.75
33496;BME280;19836;55.812;37.560;2023-08-21T02:57:59;99733.22;;;16.26;79.48
33496;BME280;19836;55.812;37.560;2023-08-21T03:00:25;99736.22;;;16.37;79.77
33496;BME280;19836;55.812;37.560;2023-08-21T03:02:51;99739.72;;;16.39;79.59
33496;BME280;19836;55.812;37.560;2023-08-21T03:05:17;99737.13;;;16.37;79.05
33496;BME280;19836;55.812;37.560;2023-08-21T03:07:43;99741.53;;;16.40;79.10
33496;BME280;19836;55.812;37.560;2023-08-21T03:10:09;99732.38;;;16.42;79.17
33496;BME280;19836;55.812;37.560;2023-08-21T03:12:35;99734.72;;;16.48;79.30
33496;BME280;19836;55.812;37.560;2023-08-21T03:15:01;99731.84;;;16.51;79.30
33496;BME280;19836;55.812;37.560;2023-08-21T03:17:30;99735.50;;;16.50;78.98
33496;BME280;19836;55.812;37.560;2023-08-21T03:19:56;99740.84;;;16.52;79.10
33496;BME280;19836;55.812;37.560;2023-08-21T03:22:23;99737.19;;;16.53;79.09
33496;BME280;19836;55.812;37.560;2023-08-21T03:24:49;99736.13;;;16.55;78.89
33496;BME280;19836;55.812;37.560;2023-08-21T03:27:15;99734.13;;;16.59;79.19
33496;BME280;19836;55.812;37.560;2023-08-21T03:29:42;99737.56;;;16.62;78.99
33496;BME280;19836;55.812;37.560;2023-08-21T03:32:15;99734.06;;;16.60;79.18
33496;BME280;19836;55.812;37.560;2023-08-21T03:34:41;99740.28;;;16.62;78.72
33496;BME280;19836;55.812;37.560;2023-08-21T03:37:07;99740.00;;;16.67;78.81
33496;BME280;19836;55.812;37.560;2023-08-21T03:39:34;99741.75;;;16.68;78.34
33496;BME280;19836;55.812;37.560;2023-08-21T03:42:00;99737.22;;;16.68;78.17
33496;BME280;19836;55.812;37.560;2023-08-21T03:44:26;99737.03;;;16.71;77.83
33496;BME280;19836;55.812;37.560;2023-08-21T03:46:52;99739.06;;;16.68;77.93
33496;BME280;19836;55.812;37.560;2023-08-21T03:49:18;99738.09;;;16.69;77.83
33496;BME280;19836;55.812;37.560;2023-08-21T03:51:44;99739.13;;;16.66;77.76
33496;BME280;19836;55.812;37.560;2023-08-21T03:54:10;99737.22;;;16.68;77.38
33496;BME280;19836;55.812;37.560;2023-08-21T03:56:36;99737.84;;;16.73;77.42
33496;BME280;19836;55.812;37.560;2023-08-21T03:59:02;99738.13;;;16.84;77.21
33496;BME280;19836;55.812;37.560;2023-08-21T04:01:28;99736.66;;;16.94;76.90
33496;BME280;19836;55.812;37.560;2023-08-21T04:03:54;99738.41;;;16.95;77.02
33496;BME280;19836;55.812;37.560;2023-08-21T04:06:20;99746.59;;;16.94;76.37
33496;BME280;19836;55.812;37.560;2023-08-21T04:08:47;99744.63;;;16.97;76.45
33496;BME280;19836;55.812;37.560;2023-08-21T04:11:13;99737.88;;;17.04;76.55
33496;BME280;19836;55.812;37.560;2023-08-21T04:13:39;99742.34;;;17.05;75.99
33496;BME280;19836;55.812;37.560;2023-08-21T04:16:05;99744.81;;;17.10;75.78
33496;BME280;19836;55.812;37.560;2023-08-21T04:18:31;99748.38;;;17.10;75.88
33496;BME280;19836;55.812;37.560;2023-08-21T04:20:57;99748.81;;;17.18;75.55
33496;BME280;19836;55.812;37.560;2023-08-21T04:23:22;99741.31;;;17.23;75.30
33496;BME280;19836;55.812;37.560;2023-08-21T04:25:48;99749.50;;;17.22;74.85
33496;BME280;19836;55.812;37.560;2023-08-21T04:28:14;99748.53;;;17.23;74.64
33496;BME280;19836;55.812;37.560;2023-08-21T04:30:41;99748.31;;;17.27;74.44
33496;BME280;19836;55.812;37.560;2023-08-21T04:33:10;99744.28;;;17.34;74.16
33496;BME280;19836;55.812;37.560;2023-08-21T04:35:39;99743.94;;;17.40;73.52
33496;BME280;19836;55.812;37.560;2023-08-21T04:38:05;99745.53;;;17.44;73.61
33496;BME280;19836;55.812;37.560;2023-08-21T04:40:32;99739.81;;;17.49;73.31
33496;BME280;19836;55.812;37.560;2023-08-21T04:42:58;99749.00;;;17.46;72.78
33496;BME280;19836;55.812;37.560;2023-08-21T04:45:24;99747.94;;;17.49;72.72
33496;BME280;19836;55.812;37.560;2023-08-21T04:47:50;99750.41;;;17.53;72.68
33496;BME280;19836;55.812;37.560;2023-08-21T04:50:16;99747.63;;;17.55;72.58
33496;BME280;19836;55.812;37.560;2023-08-21T04:52:42;99749.28;;;17.57;72.03
33496;BME280;19836;55.812;37.560;2023-08-21T04:55:09;99751.63;;;17.63;71.99
33496;BME280;19836;55.812;37.560;2023-08-21T04:57:37;99747.78;;;17.67;71.57
33496;BME280;19836;55.812;37.560;2023-08-21T05:00:06;99752.22;;;17.68;71.18
33496;BME280;19836;55.812;37.560;2023-08-21T05:02:37;99747.22;;;17.76;71.09
33496;BME280;19836;55.812;37.560;2023-08-21T05:05:03;99748.63;;;17.83;70.68
33496;BME280;19836;55.812;37.560;2023-08-21T05:07:31;99744.75;;;17.87;70.43
33496;BME280;19836;55.812;37.560;2023-08-21T05:10:00;99745.25;;;17.94;70.33
33496;BME280;19836;55.812;37.560;2023-08-21T05:12:31;99748.56;;;17.99;70.39
33496;BME280;19836;55.812;37.560;2023-08-21T05:14:58;99741.09;;;18.02;69.90
33496;BME280;19836;55.812;37.560;2023-08-21T05:17:24;99747.03;;;18.09;69.74
33496;BME280;19836;55.812;37.560;2023-08-21T05:19:52;99744.06;;;18.13;69.38
33496;BME280;19836;55.812;37.560;2023-08-21T05:22:21;99750.25;;;18.15;69.04
33496;BME280;19836;55.812;37.560;2023-08-21T05:24:49;99751.81;;;18.19;68.84
33496;BME280;19836;55.812;37.560;2023-08-21T05:27:15;99754.31;;;18.22;68.42
33496;BME280;19836;55.812;37.560;2023-08-21T05:29:41;99752.22;;;18.27;67.83
33496;BME280;19836;55.812;37.560;2023-08-21T05:32:07;99749.19;;;18.33;67.45
33496;BME280;19836;55.812;37.560;2023-08-21T05:34:35;99747.91;;;18.39;67.22
33496;BME280;19836;55.812;37.560;2023-08-21T05:37:01;99749.38;;;18.44;67.21
33496;BME280;19836;55.812;37.560;2023-08-21T05:39:27;99752.09;;;18.44;67.07
33496;BME280;19836;55.812;37.560;2023-08-21T05:41:53;99751.13;;;18.45;66.95
33496;BME280;19836;55.812;37.560;2023-08-21T05:44:19;99742.81;;;18.48;66.96
33496;BME280;19836;55.812;37.560;2023-08-21T05:46:45;99749.19;;;18.47;66.57
33496;BME280;19836;55.812;37.560;2023-08-21T05:49:11;99743.56;;;18.50;67.31
33496;BME280;19836;55.812;37.560;2023-08-21T05:51:37;99746.78;;;18.57;67.32
33496;BME280;19836;55.812;37.560;2023-08-21T05:54:03;99740.66;;;18.67;67.05
33496;BME280;19836;55.812;37.560;2023-08-21T05:56:29;99735.81;;;18.72;66.87
33496;BME280;19836;55.812;37.560;2023-08-21T05:58:55;99730.03;;;18.78;66.91
33496;BME280;19836;55.812;37.560;2023-08-21T06:01:24;99730.47;;;18.85;67.03
33496;BME280;19836;55.812;37.560;2023-08-21T06:03:50;99732.84;;;18.91;66.75
33496;BME280;19836;55.812;37.560;2023-08-21T06:06:34;99733.19;;;18.99;66.02
33496;BME280;19836;55.812;37.560;2023-08-21T06:09:00;99737.56;;;19.01;65.73
33496;BME280;19836;55.812;37.560;2023-08-21T06:11:27;99730.38;;;19.00;65.83
33496;BME280;19836;55.812;37.560;2023-08-21T06:13:52;99729.22;;;19.04;65.70
33496;BME280;19836;55.812;37.560;2023-08-21T06:16:18;99733.09;;;19.14;65.56
33496;BME280;19836;55.812;37.560;2023-08-21T06:18:46;99730.47;;;19.13;65.38
33496;BME280;19836;55.812;37.560;2023-08-21T06:21:12;99723.97;;;19.15;64.80
33496;BME280;19836;55.812;37.560;2023-08-21T06:23:38;99724.38;;;19.23;64.05
33496;BME280;19836;55.812;37.560;2023-08-21T06:26:04;99729.19;;;19.32;63.78
33496;BME280;19836;55.812;37.560;2023-08-21T06:28:31;99723.97;;;19.29;63.28
33496;BME280;19836;55.812;37.560;2023-08-21T06:30:57;99724.06;;;19.28;62.77
33496;BME280;19836;55.812;37.560;2023-08-21T06:33:31;99722.78;;;19.19;62.39
33496;BME280;19836;55.812;37.560;2023-08-21T06:35:57;99719.13;;;19.06;62.13
33496;BME280;19836;55.812;37.560;2023-08-21T06:38:23;99714.28;;;18.97;61.94
33496;BME280;19836;55.812;37.560;2023-08-21T06:40:49;99718.63;;;19.00;62.37
33496;BME280;19836;55.812;37.560;2023-08-21T06:43:17;99719.69;;;19.25;62.42
33496;BME280;19836;55.812;37.560;2023-08-21T06:45:46;99719.63;;;19.53;61.95
33496;BME280;19836;55.812;37.560;2023-08-21T06:48:13;99714.28;;;19.78;61.48
33496;BME280;19836;55.812;37.560;2023-08-21T06:50:39;99725.41;;;20.14;60.73
33496;BME280;19836;55.812;37.560;2023-08-21T06:53:05;99717.81;;;20.44;59.66
33496;BME280;19836;55.812;37.560;2023-08-21T06:55:31;99718.91;;;20.92;58.31
33496;BME280;19836;55.812;37.560;2023-08-21T06:57:57;99722.09;;;21.34;56.70
33496;BME280;19836;55.812;37.560;2023-08-21T07:00:23;99721.69;;;21.51;55.69
33496;BME280;19836;55.812;37.560;2023-08-21T07:02:49;99720.09;;;21.72;54.57
33496;BME280;19836;55.812;37.560;2023-08-21T07:05:15;99734.56;;;21.85;53.87
33496;BME280;19836;55.812;37.560;2023-08-21T07:07:41;99732.06;;;21.82;53.87
33496;BME280;19836;55.812;37.560;2023-08-21T07:10:08;99736.53;;;21.83;53.60
33496;BME280;19836;55.812;37.560;2023-08-21T07:12:34;99737.28;;;21.85;52.82
33496;BME280;19836;55.812;37.560;2023-08-21T07:15:00;99737.50;;;21.82;52.56
33496;BME280;19836;55.812;37.560;2023-08-21T07:17:26;99743.34;;;21.78;52.60
33496;BME280;19836;55.812;37.560;2023-08-21T07:19:51;99737.78;;;21.67;52.42
33496;BME280;19836;55.812;37.560;2023-08-21T07:22:19;99745.88;;;21.56;52.51
33496;BME280;19836;55.812;37.560;2023-08-21T07:24:46;99750.41;;;21.44;52.80
33496;BME280;19836;55.812;37.560;2023-08-21T07:27:12;99745.88;;;21.56;52.75
33496;BME280;19836;55.812;37.560;2023-08-21T07:29:38;99744.91;;;21.57;53.06
33496;BME280;19836;55.812;37.560;2023-08-21T07:32:04;99751.47;;;21.54;53.14
33496;BME280;19836;55.812;37.560;2023-08-21T07:34:30;99743.28;;;21.54;52.99
33496;BME280;19836;55.812;37.560;2023-08-21T07:36:57;99738.56;;;21.69;52.92
33496;BME280;19836;55.812;37.560;2023-08-21T07:39:23;99737.16;;;21.51;52.76
33496;BME280;19836;55.812;37.560;2023-08-21T07:41:49;99740.09;;;21.24;52.81
33496;BME280;19836;55.812;37.560;2023-08-21T07:44:15;99736.97;;;21.05;53.22
33496;BME280;19836;55.812;37.560;2023-08-21T07:46:41;99733.16;;;20.70;53.78
33496;BME280;19836;55.812;37.560;2023-08-21T07:49:07;99731.97;;;20.62;54.43
33496;BME280;19836;55.812;37.560;2023-08-21T07:51:33;99738.16;;;20.76;54.16
33496;BME280;19836;55.812;37.560;2023-08-21T07:53:59;99742.72;;;20.88;54.08
33496;BME280;19836;55.812;37.560;2023-08-21T07:56:25;99730.34;;;20.84;53.64
33496;BME280;19836;55.812;37.560;2023-08-21T07:58:51;99737.72;;;20.82;53.34
33496;BME280;19836;55.812;37.560;2023-08-21T08:01:16;99731.53;;;20.80;53.16
33496;BME280;19836;55.812;37.560;2023-08-21T08:03:42;99723.91;;;20.85;52.57
33496;BME280;19836;55.812;37.560;2023-08-21T08:06:08;99729.34;;;20.85;52.73
33496;BME280;19836;55.812;37.560;2023-08-21T08:08:34;99734.28;;;20.93;53.22
33496;BME280;19836;55.812;37.560;2023-08-21T08:11:04;99726.81;;;21.07;53.20
33496;BME280;19836;55.812;37.560;2023-08-21T08:13:30;99720.91;;;21.13;53.11
33496;BME280;19836;55.812;37.560;2023-08-21T08:15:56;99730.72;;;21.16;53.27
33496;BME280;19836;55.812;37.560;2023-08-21T08:18:22;99720.91;;;21.13;53.71
33496;BME280;19836;55.812;37.560;2023-08-21T08:20:48;99722.69;;;21.14;54.31
33496;BME280;19836;55.812;37.560;2023-08-21T08:23:14;99720.91;;;21.13;54.63
33496;BME280;19836;55.812;37.560;2023-08-21T08:25:39;99718.31;;;21.24;54.42
33496;BME280;19836;55.812;37.560;2023-08-21T08:28:05;99718.84;;;21.29;54.11
33496;BME280;19836;55.812;37.560;2023-08-21T08:30:34;99710.88;;;21.26;53.88
33496;BME280;19836;55.812;37.560;2023-08-21T08:33:00;99709.72;;;21.41;53.58
33496;BME280;19836;55.812;37.560;2023-08-21T08:35:26;99703.91;;;21.46;53.31
33496;BME280;19836;55.812;37.560;2023-08-21T08:37:52;99708.28;;;21.48;53.17
33496;BME280;19836;55.812;37.560;2023-08-21T08:40:18;99709.91;;;21.51;53.08
33496;BME280;19836;55.812;37.560;2023-08-21T08:42:45;99707.00;;;21.41;52.85
33496;BME280;19836;55.812;37.560;2023-08-21T08:45:13;99705.16;;;21.42;52.34
33496;BME280;19836;55.812;37.560;2023-08-21T08:47:43;99704.34;;;21.52;51.98
33496;BME280;19836;55.812;37.560;2023-08-21T08:50:09;99707.00;;;21.65;52.00
33496;BME280;19836;55.812;37.560;2023-08-21T08:52:38;99697.81;;;21.78;52.06
33496;BME280;19836;55.812;37.560;2023-08-21T08:55:06;99696.88;;;21.90;51.82
33496;BME280;19836;55.812;37.560;2023-08-21T08:57:35;99697.03;;;22.00;51.93
33496;BME280;19836;55.812;37.560;2023-08-21T09:00:03;99695.22;;;22.11;51.88
33496;BME280;19836;55.812;37.560;2023-08-21T09:02:34;99691.56;;;22.34;51.51
33496;BME280;19836;55.812;37.560;2023-08-21T09:05:00;99691.75;;;22.55;51.05
33496;BME280;19836;55.812;37.560;2023-08-21T09:07:29;99676.00;;;22.69;50.31
33496;BME280;19836;55.812;37.560;2023-08-21T09:09:55;99677.50;;;22.95;49.52
33496;BME280;19836;55.812;37.560;2023-08-21T09:12:21;99676.84;;;24.10;48.30
33496;BME280;19836;55.812;37.560;2023-08-21T09:14:49;99672.06;;;26.11;44.41
33496;BME280;19836;55.812;37.560;2023-08-21T09:17:15;99671.00;;;27.59;41.87
33496;BME280;19836;55.812;37.560;2023-08-21T09:19:43;99667.72;;;27.73;40.97
33496;BME280;19836;55.812;37.560;2023-08-21T09:22:09;99662.88;;;28.37;39.50
33496;BME280;19836;55.812;37.560;2023-08-21T09:24:37;99682.19;;;27.31;39.65
33496;BME280;19836;55.812;37.560;2023-08-21T09:27:03;99669.09;;;27.42;40.02
33496;BME280;19836;55.812;37.560;2023-08-21T09:29:38;99664.28;;;29.18;37.88
33496;BME280;19836;55.812;37.560;2023-08-21T09:32:05;99661.03;;;30.69;35.65
33496;BME280;19836;55.812;37.560;2023-08-21T09:34:35;99663.06;;;31.85;33.59
33496;BME280;19836;55.812;37.560;2023-08-21T09:37:06;99644.72;;;32.88;31.71
33496;BME280;19836;55.812;37.560;2023-08-21T09:39:36;99657.09;;;31.96;31.54
33496;BME280;19836;55.812;37.560;2023-08-21T09:42:08;99664.75;;;31.00;32.08
33496;BME280;19836;55.812;37.560;2023-08-21T09:44:40;99653.38;;;31.73;31.17
33496;BME280;19836;55.812;37.560;2023-08-21T09:47:11;99656.69;;;30.51;31.37
33496;BME280;19836;55.812;37.560;2023-08-21T09:49:39;99662.13;;;31.23;31.18
33496;BME280;19836;55.812;37.560;2023-08-21T09:52:07;99655.09;;;31.43;31.16
33496;BME280;19836;55.812;37.560;2023-08-21T09:54:53;99655.56;;;31.00;31.29
33496;BME280;19836;55.812;37.560;2023-08-21T09:57:21;99650.16;;;31.31;31.30
33496;BME280;19836;55.812;37.560;2023-08-21T09:59:51;99656.13;;;30.95;31.35
33496;BME280;19836;55.812;37.560;2023-08-21T10:02:17;99646.31;;;32.46;30.23
33496;BME280;19836;55.812;37.560;2023-08-21T10:04:45;99641.94;;;33.61;28.56
33496;BME280;19836;55.812;37.560;2023-08-21T10:07:12;99633.03;;;34.91;27.42
33496;BME280;19836;55.812;37.560;2023-08-21T10:09:42;99639.81;;;35.84;26.28
33496;BME280;19836;55.812;37.560;2023-08-21T10:12:09;99638.25;;;36.35;25.34
33496;BME280;19836;55.812;37.560;2023-08-21T10:14:36;99641.06;;;37.07;24.66
33496;BME280;19836;55.812;37.560;2023-08-21T10:17:05;99638.63;;;37.56;23.45
33496;BME280;19836;55.812;37.560;2023-08-21T10:19:32;99630.31;;;37.23;23.28
33496;BME280;19836;55.812;37.560;2023-08-21T10:22:01;99635.56;;;36.01;24.33
33496;BME280;19836;55.812;37.560;2023-08-21T10:24:36;99628.34;;;34.92;25.03
33496;BME280;19836;55.812;37.560;2023-08-21T10:27:03;99630.59;;;34.12;25.72
33496;BME280;19836;55.812;37.560;2023-08-21T10:29:29;99627.94;;;35.29;25.48
33496;BME280;19836;55.812;37.560;2023-08-21T10:32:04;99626.88;;;37.08;23.36
33496;BME280;19836;55.812;37.560;2023-08-21T10:34:35;99620.47;;;38.15;22.43
33496;BME280;19836;55.812;37.560;2023-08-21T10:37:08;99614.75;;;38.90;21.45
33496;BME280;19836;55.812;37.560;2023-08-21T10:39:36;99618.19;;;38.86;21.56
33496;BME280;19836;55.812;37.560;2023-08-21T10:42:11;99623.75;;;39.17;20.55
33496;BME280;19836;55.812;37.560;2023-08-21T10:49:57;99607.19;;;37.98;21.18
33496;BME280;19836;55.812;37.560;2023-08-21T10:52:29;99602.00;;;38.63;21.21
33496;BME280;19836;55.812;37.560;2023-08-21T10:54:59;99602.53;;;39.03;20.45
33496;BME280;19836;55.812;37.560;2023-08-21T10:57:28;99600.72;;;39.08;19.99
33496;BME280;19836;55.812;37.560;2023-08-21T10:59:56;99604.78;;;39.12;19.40
33496;BME280;19836;55.812;37.560;2023-08-21T11:02:23;99592.31;;;39.33;19.80
33496;BME280;19836;55.812;37.560;2023-08-21T11:04:50;99597.72;;;39.64;19.14
33496;BME280;19836;55.812;37.560;2023-08-21T11:07:17;99596.34;;;40.20;18.67
33496;BME280;19836;55.812;37.560;2023-08-21T11:09:44;99596.78;;;40.47;18.32
33496;BME280;19836;55.812;37.560;2023-08-21T11:12:12;99593.53;;;39.55;18.51
33496;BME280;19836;55.812;37.560;2023-08-21T11:14:39;99582.94;;;37.35;20.43
33496;BME280;19836;55.812;37.560;2023-08-21T11:17:06;99587.38;;;37.99;20.47
33496;BME280;19836;55.812;37.560;2023-08-21T11:19:33;99584.69;;;38.48;20.13
33496;BME280;19836;55.812;37.560;2023-08-21T11:22:00;99582.34;;;38.94;19.94
33496;BME280;19836;55.812;37.560;2023-08-21T11:24:49;99582.13;;;39.86;19.31
33496;BME280;19836;55.812;37.560;2023-08-21T11:27:17;99578.16;;;38.79;19.89
33496;BME280;19836;55.812;37.560;2023-08-21T11:29:45;99575.50;;;37.16;20.98
33496;BME280;19836;55.812;37.560;2023-08-21T11:32:13;99576.91;;;37.38;20.93
33496;BME280;19836;55.812;37.560;2023-08-21T11:34:42;99579.03;;;38.24;19.87
33496;BME280;19836;55.812;37.560;2023-08-21T11:37:09;99581.03;;;38.97;19.25
33496;BME280;19836;55.812;37.560;2023-08-21T11:39:49;99580.44;;;39.67;18.95
33496;BME280;19836;55.812;37.560;2023-08-21T11:42:16;99581.78;;;39.94;18.85
33496;BME280;19836;55.812;37.560;2023-08-21T11:44:49;99580.72;;;40.24;18.46
33496;BME280;19836;55.812;37.560;2023-08-21T11:47:17;99584.28;;;40.13;18.94
33496;BME280;19836;55.812;37.560;2023-08-21T11:49:45;99579.84;;;40.24;17.55
33496;BME280;19836;55.812;37.560;2023-08-21T11:52:13;99567.44;;;40.02;17.63
33496;BME280;19836;55.812;37.560;2023-08-21T11:54:40;99567.31;;;39.79;17.75
33496;BME280;19836;55.812;37.560;2023-08-21T11:57:15;99572.63;;;39.69;17.76
33496;BME280;19836;55.812;37.560;2023-08-21T11:59:41;99559.69;;;39.68;18.48
33496;BME280;19836;55.812;37.560;2023-08-21T12:02:14;99570.22;;;39.72;18.29
33496;BME280;19836;55.812;37.560;2023-08-21T12:04:41;99565.38;;;40.09;17.79
33496;BME280;19836;55.812;37.560;2023-08-21T12:07:07;99565.72;;;40.42;17.96
33496;BME280;19836;55.812;37.560;2023-08-21T12:09:33;99554.13;;;40.50;18.07
33496;BME280;19836;55.812;37.560;2023-08-21T12:11:59;99548.88;;;40.42;17.58
33496;BME280;19836;55.812;37.560;2023-08-21T12:14:27;99560.53;;;40.80;17.47
33496;BME280;19836;55.812;37.560;2023-08-21T12:16:53;99556.97;;;40.96;17.23
33496;BME280;19836;55.812;37.560;2023-08-21T12:19:21;99545.00;;;40.89;17.05
33496;BME280;19836;55.812;37.560;2023-08-21T12:21:47;99549.78;;;40.77;17.11
33496;BME280;19836;55.812;37.560;2023-08-21T12:24:13;99548.25;;;40.51;17.12
33496;BME280;19836;55.812;37.560;2023-08-21T12:26:39;99540.00;;;40.56;16.96
33496;BME280;19836;55.812;37.560;2023-08-21T12:29:05;99543.13;;;40.48;17.20
33496;BME280;19836;55.812;37.560;2023-08-21T12:31:32;99550.47;;;39.61;17.79
33496;BME280;19836;55.812;37.560;2023-08-21T12:33:57;99542.38;;;38.32;19.06
33496;BME280;19836;55.812;37.560;2023-08-21T12:36:25;99540.53;;;36.74;20.17
33496;BME280;19836;55.812;37.560;2023-08-21T12:38:50;99539.16;;;35.79;21.17
33496;BME280;19836;55.812;37.560;2023-08-21T12:41:17;99538.78;;;34.33;22.18
33496;BME280;19836;55.812;37.560;2023-08-21T12:43:44;99544.44;;;32.69;23.51
33496;BME280;19836;55.812;37.560;2023-08-21T12:46:10;99532.38;;;33.55;23.85
33496;BME280;19836;55.812;37.560;2023-08-21T12:48:36;99535.47;;;35.12;23.07
33496;BME280;19836;55.812;37.560;2023-08-21T12:51:02;99531.06;;;36.43;21.81
33496;BME280;19836;55.812;37.560;2023-08-21T12:53:28;99523.63;;;37.20;20.57
33496;BME280;19836;55.812;37.560;2023-08-21T12:55:54;99521.94;;;37.94;19.58
33496;BME280;19836;55.812;37.560;2023-08-21T12:58:20;99515.72;;;37.61;19.39
33496;BME280;19836;55.812;37.560;2023-08-21T13:00:46;99511.38;;;37.65;18.93
33496;BME280;19836;55.812;37.560;2023-08-21T13:03:12;99507.38;;;36.91;19.03
33496;BME280;19836;55.812;37.560;2023-08-21T13:05:38;99510.88;;;36.73;19.59